Time;durP1;ratioP1;P1;durP2;ratioP2;P2;SDS_P1;SDS_P2;PMS_P1;PMS_P2;Temp;Humidity;BMP_temperature;BMP_pressure;BME280_temperature;BME280_humidity;BME280_pressure;Samples;Min_cycle;Max_cycle;Signal;HPM_P1;HPM_P2
2022/04/04 00:00:42;;;;;;;13.63;11.20;;;;;;;;;;5072139;28;20419;-56
2022/04/04 00:03:08;;;;;;;15.13;10.47;;;;;;;;;;5072043;28;20414;-56
2022/04/04 00:05:35;;;;;;;21.13;11.97;;;;;;;;;;5072441;28;20768;-55
2022/04/04 00:08:01;;;;;;;13.40;11.50;;;;;;;;;;5071832;28;20435;-56
2022/04/04 00:10:27;;;;;;;16.83;11.27;;;;;;;;;;5045139;28;20431;-56
2022/04/04 00:12:53;;;;;;;11.53;10.43;;;;;;;;;;5072005;28;20419;-53
2022/04/04 00:15:19;;;;;;;11.17;10.07;;;;;;;;;;5072125;28;20975;-55
2022/04/04 00:17:45;;;;;;;12.23;10.00;;;;;;;;;;5071854;28;20447;-55
2022/04/04 00:20:11;;;;;;;10.77;9.70;;;;;;;;;;5072048;28;20850;-55
2022/04/04 00:22:37;;;;;;;19.23;10.67;;;;;;;;;;5071235;28;20407;-55
2022/04/04 00:25:04;;;;;;;11.03;9.93;;;;;;;;;;5063534;28;20424;-55
2022/04/04 00:27:30;;;;;;;10.90;9.60;;;;;;;;;;5071785;28;20425;-55
2022/04/04 00:29:57;;;;;;;25.20;11.77;;;;;;;;;;5071822;28;20411;-54
2022/04/04 00:32:23;;;;;;;13.80;10.03;;;;;;;;;;5071728;28;20398;-55
2022/04/04 00:34:49;;;;;;;16.30;10.93;;;;;;;;;;5071718;28;20486;-55
2022/04/04 00:37:15;;;;;;;10.17;9.13;;;;;;;;;;5071626;28;20904;-55
2022/04/04 00:39:41;;;;;;;10.30;9.30;;;;;;;;;;5066662;28;20434;-55
2022/04/04 00:42:07;;;;;;;15.00;9.90;;;;;;;;;;5067969;28;20402;-56
2022/04/04 00:44:33;;;;;;;14.90;10.20;;;;;;;;;;5053714;28;20453;-56
2022/04/04 00:46:59;;;;;;;10.60;9.53;;;;;;;;;;5071501;28;20426;-55
2022/04/04 00:49:25;;;;;;;11.73;10.63;;;;;;;;;;5071642;28;20406;-55
2022/04/04 00:51:52;;;;;;;11.20;10.07;;;;;;;;;;5053431;28;20525;-55
2022/04/04 00:54:18;;;;;;;11.63;10.53;;;;;;;;;;5053391;28;20411;-55
2022/04/04 00:56:45;;;;;;;11.77;9.77;;;;;;;;;;5065090;28;20459;-55
2022/04/04 00:59:14;;;;;;;12.17;10.93;;;;;;;;;;5068188;28;20537;-55
2022/04/04 01:01:40;;;;;;;10.37;9.40;;;;;;;;;;5071409;28;20510;-55
2022/04/04 01:04:08;;;;;;;12.90;10.50;;;;;;;;;;5071378;28;20939;-55
2022/04/04 01:06:35;;;;;;;11.03;9.30;;;;;;;;;;5062872;28;20394;-56
2022/04/04 01:09:03;;;;;;;15.83;9.70;;;;;;;;;;5071355;28;20923;-55
2022/04/04 01:11:29;;;;;;;11.57;10.33;;;;;;;;;;5067634;28;20498;-56
2022/04/04 01:13:55;;;;;;;13.37;9.87;;;;;;;;;;5047220;28;20450;-54
2022/04/04 01:16:21;;;;;;;20.53;10.40;;;;;;;;;;5071147;28;20458;-55
2022/04/04 01:18:47;;;;;;;13.10;10.23;;;;;;;;;;5071078;28;20932;-55
2022/04/04 01:21:18;;;;;;;11.63;9.90;;;;;;;;;;5071217;28;20505;-55
2022/04/04 01:23:44;;;;;;;11.60;10.40;;;;;;;;;;5071396;28;20414;-56
2022/04/04 01:26:11;;;;;;;13.13;10.30;;;;;;;;;;5071024;28;20411;-55
2022/04/04 01:28:38;;;;;;;14.20;8.50;;;;;;;;;;5069085;28;20439;-56
2022/04/04 01:31:05;;;;;;;13.47;10.90;;;;;;;;;;5071390;28;20415;-55
2022/04/04 01:33:31;;;;;;;10.57;9.67;;;;;;;;;;5053110;28;20429;-55
2022/04/04 01:35:57;;;;;;;12.13;9.47;;;;;;;;;;5070945;28;20791;-56
2022/04/04 01:38:23;;;;;;;9.60;8.67;;;;;;;;;;5070971;28;20488;-56
2022/04/04 01:40:50;;;;;;;14.23;11.50;;;;;;;;;;5052963;28;20913;-55
2022/04/04 01:43:16;;;;;;;11.77;9.83;;;;;;;;;;5053121;28;20476;-56
2022/04/04 01:48:27;;;;;;;9.30;8.43;;;;;;;;;;5071232;28;20892;-54
2022/04/04 01:50:53;;;;;;;10.73;9.70;;;;;;;;;;5071146;28;20414;-54
2022/04/04 01:53:29;;;;;;;9.63;8.73;;;;;;;;;;5071006;28;20444;-55
2022/04/04 01:55:56;;;;;;;9.90;8.90;;;;;;;;;;5070857;28;20484;-56
2022/04/04 01:58:23;;;;;;;9.70;8.70;;;;;;;;;;5070901;28;20468;-55
2022/04/04 02:00:49;;;;;;;11.27;8.60;;;;;;;;;;5068806;28;20506;-55
2022/04/04 02:03:15;;;;;;;9.43;8.53;;;;;;;;;;5070912;28;20418;-55
2022/04/04 02:05:41;;;;;;;10.17;9.27;;;;;;;;;;5070599;28;20411;-55
2022/04/04 02:08:08;;;;;;;9.20;8.17;;;;;;;;;;5052425;28;20963;-56
2022/04/04 02:10:34;;;;;;;10.83;9.57;;;;;;;;;;5061998;28;20410;-55
2022/04/04 02:13:00;;;;;;;10.37;9.30;;;;;;;;;;5052453;28;20509;-55
2022/04/04 02:15:26;;;;;;;14.47;10.27;;;;;;;;;;5067861;28;20890;-54
2022/04/04 02:17:52;;;;;;;10.50;8.20;;;;;;;;;;5064791;28;20465;-54
2022/04/04 02:20:19;;;;;;;11.20;10.00;;;;;;;;;;5070762;28;20527;-54
2022/04/04 02:22:45;;;;;;;10.47;9.40;;;;;;;;;;5070808;28;20501;-55
2022/04/04 02:25:12;;;;;;;12.17;9.57;;;;;;;;;;5072036;28;21009;-55
2022/04/04 02:27:38;;;;;;;10.17;9.10;;;;;;;;;;5074318;28;20418;-54
2022/04/04 02:30:04;;;;;;;10.50;9.43;;;;;;;;;;5074179;28;20436;-55
2022/04/04 02:32:31;;;;;;;13.37;10.63;;;;;;;;;;5064890;28;20484;-54
2022/04/04 02:34:57;;;;;;;14.40;9.47;;;;;;;;;;5074040;28;21134;-54
2022/04/04 02:37:23;;;;;;;13.60;9.43;;;;;;;;;;5073960;28;20407;-54
2022/04/04 02:39:49;;;;;;;11.80;9.73;;;;;;;;;;5055984;28;20900;-55
2022/04/04 02:42:15;;;;;;;9.13;8.23;;;;;;;;;;5073888;28;20456;-54
2022/04/04 02:44:41;;;;;;;12.63;10.00;;;;;;;;;;5073937;28;20411;-54
2022/04/04 02:47:07;;;;;;;14.73;9.30;;;;;;;;;;5073336;28;20176;-55
2022/04/04 02:49:34;;;;;;;9.87;7.20;;;;;;;;;;5047698;28;20915;-54
2022/04/04 02:52:00;;;;;;;9.37;8.47;;;;;;;;;;5073880;28;20422;-54
2022/04/04 02:54:26;;;;;;;11.90;7.93;;;;;;;;;;5073733;28;20415;-55
2022/04/04 02:56:52;;;;;;;9.90;8.73;;;;;;;;;;5073496;28;20527;-54
2022/04/04 02:59:18;;;;;;;10.60;8.70;;;;;;;;;;5055653;28;20423;-55
2022/04/04 03:01:50;;;;;;;10.90;8.80;;;;;;;;;;5055593;28;20407;-54
2022/04/04 03:04:16;;;;;;;15.87;9.90;;;;;;;;;;5055470;28;20919;-54
2022/04/04 03:06:43;;;;;;;10.73;9.70;;;;;;;;;;5068050;28;20916;-55
2022/04/04 03:09:09;;;;;;;10.00;9.00;;;;;;;;;;5073271;28;20506;-54
2022/04/04 03:11:36;;;;;;;14.10;11.20;;;;;;;;;;5055079;28;20451;-55
2022/04/04 03:14:02;;;;;;;11.13;8.83;;;;;;;;;;5055073;28;20951;-55
2022/04/04 03:16:28;;;;;;;20.03;10.30;;;;;;;;;;5063131;28;20535;-55
2022/04/04 03:18:54;;;;;;;16.87;12.13;;;;;;;;;;5054610;28;20979;-55
2022/04/04 03:21:22;;;;;;;12.60;9.63;;;;;;;;;;5072751;28;20525;-55
2022/04/04 03:23:48;;;;;;;12.00;9.73;;;;;;;;;;5063700;28;20423;-55
2022/04/04 03:26:14;;;;;;;14.83;10.00;;;;;;;;;;5062693;28;20415;-55
2022/04/04 03:28:40;;;;;;;20.47;12.23;;;;;;;;;;5072483;28;20438;-56
2022/04/04 03:31:06;;;;;;;10.37;9.47;;;;;;;;;;5072486;28;20457;-55
2022/04/04 03:33:32;;;;;;;10.67;8.93;;;;;;;;;;5072516;28;20991;-55
2022/04/04 03:35:58;;;;;;;15.23;10.13;;;;;;;;;;5072060;28;20446;-54
2022/04/04 03:38:25;;;;;;;10.63;9.03;;;;;;;;;;5071661;28;20417;-55
2022/04/04 03:40:52;;;;;;;10.97;9.87;;;;;;;;;;5065888;28;20474;-55
2022/04/04 03:43:18;;;;;;;12.63;10.33;;;;;;;;;;5070531;28;20873;-54
2022/04/04 03:45:44;;;;;;;10.97;9.40;;;;;;;;;;5072643;28;20407;-54
2022/04/04 03:48:10;;;;;;;14.10;11.10;;;;;;;;;;5072559;28;20872;-55
2022/04/04 03:50:36;;;;;;;11.10;10.03;;;;;;;;;;5072266;28;20506;-55
2022/04/04 03:53:03;;;;;;;10.33;8.87;;;;;;;;;;5070986;28;20876;-56
2022/04/04 03:55:31;;;;;;;12.50;11.00;;;;;;;;;;5051779;28;20447;-55
2022/04/04 03:57:58;;;;;;;12.63;9.90;;;;;;;;;;5052962;28;20458;-56
2022/04/04 04:00:24;;;;;;;12.17;10.33;;;;;;;;;;5067804;28;20449;-56
2022/04/04 04:02:51;;;;;;;10.07;9.07;;;;;;;;;;5070212;28;20513;-55
2022/04/04 04:05:17;;;;;;;11.70;9.53;;;;;;;;;;5063721;28;20434;-55
2022/04/04 04:07:44;;;;;;;13.27;10.47;;;;;;;;;;5058662;28;20458;-56
2022/04/04 04:10:13;;;;;;;12.43;9.93;;;;;;;;;;5063606;28;20884;-55
2022/04/04 04:12:43;;;;;;;12.00;10.27;;;;;;;;;;5057400;28;20471;-56
2022/04/04 04:15:10;;;;;;;9.83;8.80;;;;;;;;;;5047357;28;20557;-57
2022/04/04 04:17:37;;;;;;;13.20;10.47;;;;;;;;;;5063623;28;20450;-55
2022/04/04 04:20:37;;;;;;;12.63;11.00;;;;;;;;;;5071997;28;20411;-56
2022/04/04 04:22:58;;;;;;;11.40;9.27;;;;;;;;;;5065297;28;20419;-56
2022/04/04 04:25:27;;;;;;;17.43;10.60;;;;;;;;;;5071350;28;20896;-56
2022/04/04 04:27:54;;;;;;;14.60;10.23;;;;;;;;;;5070656;28;20438;-55
2022/04/04 04:30:20;;;;;;;10.80;9.70;;;;;;;;;;5071733;28;20398;-56
2022/04/04 04:32:49;;;;;;;13.63;11.00;;;;;;;;;;5075668;28;20453;-61
2022/04/04 04:35:15;;;;;;;14.93;10.20;;;;;;;;;;5071754;28;20458;-57
2022/04/04 04:37:42;;;;;;;11.83;10.20;;;;;;;;;;5060183;28;20501;-57
2022/04/04 04:40:08;;;;;;;16.10;10.80;;;;;;;;;;5052523;28;20415;-57
2022/04/04 04:42:35;;;;;;;10.97;9.83;;;;;;;;;;5059142;28;20493;-57
2022/04/04 04:45:01;;;;;;;15.77;11.63;;;;;;;;;;5067146;28;20425;-57
2022/04/04 04:47:28;;;;;;;12.00;10.67;;;;;;;;;;5067698;28;20422;-57
2022/04/04 04:49:54;;;;;;;14.13;10.97;;;;;;;;;;5066705;28;20452;-59
2022/04/04 04:52:20;;;;;;;18.10;12.77;;;;;;;;;;5071219;28;20448;-58
2022/04/04 04:54:46;;;;;;;13.57;10.50;;;;;;;;;;5071461;28;20415;-58
2022/04/04 04:57:12;;;;;;;11.40;10.20;;;;;;;;;;5064446;28;20941;-57
2022/04/04 04:59:38;;;;;;;15.63;11.00;;;;;;;;;;5064699;28;20472;-58
2022/04/04 05:02:05;;;;;;;16.80;12.50;;;;;;;;;;5070896;28;20415;-57
2022/04/04 05:04:31;;;;;;;17.07;11.50;;;;;;;;;;5068447;28;20434;-59
2022/04/04 05:06:57;;;;;;;13.93;10.90;;;;;;;;;;5068050;28;20431;-58
2022/04/04 05:09:23;;;;;;;12.70;10.50;;;;;;;;;;5070016;28;20757;-58
2022/04/04 05:11:49;;;;;;;12.43;10.87;;;;;;;;;;5069406;28;20423;-59
2022/04/04 05:14:15;;;;;;;14.37;10.77;;;;;;;;;;5047152;28;20435;-58
2022/04/04 05:16:45;;;;;;;14.40;10.53;;;;;;;;;;5069569;28;20454;-58
2022/04/04 05:19:12;;;;;;;15.17;11.70;;;;;;;;;;5051466;28;20466;-58
2022/04/04 05:21:38;;;;;;;9.87;8.60;;;;;;;;;;5050486;28;20454;-58
2022/04/04 05:24:08;;;;;;;14.00;10.33;;;;;;;;;;5043922;28;20466;-58
2022/04/04 05:26:34;;;;;;;11.97;10.03;;;;;;;;;;5062147;28;20434;-58
2022/04/04 05:29:00;;;;;;;9.93;8.97;;;;;;;;;;5071084;28;20402;-58
2022/04/04 05:31:26;;;;;;;9.90;8.67;;;;;;;;;;5065124;28;20878;-58
2022/04/04 05:33:54;;;;;;;12.17;8.77;;;;;;;;;;5070887;28;21179;-58
2022/04/04 05:36:20;;;;;;;11.07;9.27;;;;;;;;;;5070364;28;20458;-58
2022/04/04 05:38:48;;;;;;;11.27;8.43;;;;;;;;;;5070952;28;20928;-59
2022/04/04 05:41:14;;;;;;;9.50;7.80;;;;;;;;;;5070757;28;20493;-58
2022/04/04 05:43:41;;;;;;;16.50;9.03;;;;;;;;;;5053061;28;20777;-58
2022/04/04 05:46:07;;;;;;;7.83;7.03;;;;;;;;;;5070986;28;20426;-58
2022/04/04 05:48:34;;;;;;;10.20;8.23;;;;;;;;;;5061750;28;20431;-58
2022/04/04 05:51:00;;;;;;;8.00;7.20;;;;;;;;;;5061468;28;20769;-58
2022/04/04 05:53:26;;;;;;;8.73;7.93;;;;;;;;;;5061171;28;20423;-58
2022/04/04 05:55:52;;;;;;;9.53;7.93;;;;;;;;;;5070624;28;20960;-58
2022/04/04 05:58:18;;;;;;;19.23;6.70;;;;;;;;;;5052606;28;20623;-58
2022/04/04 06:00:44;;;;;;;8.60;6.90;;;;;;;;;;5055179;28;20434;-58
2022/04/04 06:03:10;;;;;;;9.07;7.13;;;;;;;;;;5056477;28;20422;-58
2022/04/04 06:05:36;;;;;;;9.73;7.03;;;;;;;;;;5055754;28;20704;-58
2022/04/04 06:08:02;;;;;;;8.37;6.57;;;;;;;;;;5074501;28;20414;-58
2022/04/04 06:10:28;;;;;;;8.27;7.00;;;;;;;;;;5074385;28;20176;-58
2022/04/04 06:12:54;;;;;;;7.83;7.13;;;;;;;;;;5074340;28;20497;-58
2022/04/04 06:15:20;;;;;;;10.33;7.13;;;;;;;;;;5074350;28;20549;-58
2022/04/04 06:17:46;;;;;;;7.23;6.53;;;;;;;;;;5056261;28;20497;-58
2022/04/04 06:20:13;;;;;;;8.30;7.10;;;;;;;;;;5074470;28;20415;-58
2022/04/04 06:22:40;;;;;;;12.63;7.40;;;;;;;;;;5055776;28;20462;-58
2022/04/04 06:25:12;;;;;;;7.33;6.63;;;;;;;;;;5074187;28;20411;-58
2022/04/04 06:27:39;;;;;;;7.63;6.90;;;;;;;;;;5066694;28;20494;-58
2022/04/04 06:30:05;;;;;;;9.57;6.83;;;;;;;;;;5056260;28;20504;-58
2022/04/04 06:32:31;;;;;;;8.90;7.67;;;;;;;;;;5074171;28;20410;-58
2022/04/04 06:34:57;;;;;;;12.00;7.77;;;;;;;;;;5074110;28;20829;-59
2022/04/04 06:37:24;;;;;;;10.53;7.60;;;;;;;;;;5074033;28;20414;-58
2022/04/04 06:39:50;;;;;;;11.57;7.20;;;;;;;;;;5087382;28;20450;-59
2022/04/04 06:42:16;;;;;;;12.67;7.13;;;;;;;;;;5073181;28;20464;-58
2022/04/04 06:44:42;;;;;;;13.10;6.93;;;;;;;;;;5094056;28;20406;-58
2022/04/04 06:47:08;;;;;;;8.73;6.27;;;;;;;;;;5093809;28;20410;-58
2022/04/04 06:49:34;;;;;;;6.77;5.97;;;;;;;;;;5085829;28;20486;-58
2022/04/04 06:52:00;;;;;;;6.70;6.00;;;;;;;;;;5093867;28;20440;-58
2022/04/04 06:54:27;;;;;;;5.90;5.40;;;;;;;;;;5093306;28;20438;-58
2022/04/04 06:56:55;;;;;;;9.57;6.40;;;;;;;;;;5069955;28;20829;-58
2022/04/04 06:59:21;;;;;;;5.90;5.40;;;;;;;;;;5093278;28;20412;-58
2022/04/04 07:01:49;;;;;;;9.30;5.93;;;;;;;;;;5093502;28;20475;-59
2022/04/04 07:04:16;;;;;;;5.33;5.00;;;;;;;;;;5093778;28;20959;-58
2022/04/04 07:06:42;;;;;;;5.73;5.23;;;;;;;;;;5093827;28;20505;-58
2022/04/04 07:09:08;;;;;;;5.23;4.83;;;;;;;;;;5093496;28;20429;-58
2022/04/04 07:11:35;;;;;;;5.83;5.20;;;;;;;;;;5084127;28;20418;-59
2022/04/04 07:14:02;;;;;;;8.97;6.13;;;;;;;;;;5093667;28;20418;-58
2022/04/04 07:16:28;;;;;;;5.63;5.13;;;;;;;;;;5093527;28;20594;-58
2022/04/04 07:18:54;;;;;;;6.07;5.57;;;;;;;;;;5093290;28;20467;-58
2022/04/04 07:21:22;;;;;;;14.03;4.97;;;;;;;;;;5093538;28;20417;-58
2022/04/04 07:23:48;;;;;;;6.47;5.87;;;;;;;;;;5093307;28;20187;-58
2022/04/04 07:26:19;;;;;;;7.70;5.60;;;;;;;;;;5075056;28;20417;-58
2022/04/04 07:28:45;;;;;;;6.93;6.23;;;;;;;;;;5086917;28;20964;-58
2022/04/04 07:31:11;;;;;;;6.50;5.47;;;;;;;;;;5093260;28;20895;-58
2022/04/04 07:33:37;;;;;;;6.00;5.23;;;;;;;;;;5093289;28;20421;-58
2022/04/04 07:36:04;;;;;;;6.27;5.77;;;;;;;;;;5074955;28;20500;-58
2022/04/04 07:38:30;;;;;;;9.57;5.60;;;;;;;;;;5092906;28;20417;-58
2022/04/04 07:40:56;;;;;;;5.93;4.43;;;;;;;;;;5093104;28;20467;-58
2022/04/04 07:43:22;;;;;;;9.33;4.90;;;;;;;;;;5092993;28;20426;-58
2022/04/04 07:45:48;;;;;;;4.90;4.60;;;;;;;;;;5092646;28;20900;-58
2022/04/04 07:48:14;;;;;;;6.10;5.50;;;;;;;;;;5092982;28;20960;-58
2022/04/04 07:50:43;;;;;;;9.10;6.33;;;;;;;;;;5074475;28;20421;-58
2022/04/04 07:53:10;;;;;;;8.57;6.70;;;;;;;;;;5093023;28;20179;-58
2022/04/04 07:55:36;;;;;;;9.23;5.03;;;;;;;;;;5074222;28;20822;-58
2022/04/04 07:58:02;;;;;;;11.50;7.77;;;;;;;;;;5092446;28;20406;-58
2022/04/04 08:00:29;;;;;;;9.07;5.60;;;;;;;;;;5071410;28;20434;-58
2022/04/04 08:02:55;;;;;;;5.80;5.30;;;;;;;;;;5087124;28;20405;-58
2022/04/04 08:05:21;;;;;;;6.13;5.50;;;;;;;;;;5074381;28;20429;-58
2022/04/04 08:07:48;;;;;;;11.33;5.13;;;;;;;;;;5092527;28;20412;-58
2022/04/04 08:10:16;;;;;;;6.57;5.97;;;;;;;;;;5092570;28;20402;-59
2022/04/04 08:12:42;;;;;;;5.93;5.40;;;;;;;;;;5092469;28;20535;-58
2022/04/04 08:15:09;;;;;;;9.13;5.20;;;5.70;99.90;;;;;;5092401;28;21081;-58
2022/04/04 08:17:35;;;;;;;5.33;4.90;;;;;;;;;;5080990;28;20496;-58
2022/04/04 08:20:02;;;;;;;5.90;4.37;;;5.70;99.90;;;;;;5082630;28;20417;-58
2022/04/04 08:22:28;;;;;;;6.40;5.70;;;;;;;;;;5091639;28;20421;-58
2022/04/04 08:24:54;;;;;;;6.23;4.70;;;;;;;;;;5073779;28;20500;-58
2022/04/04 08:27:22;;;;;;;4.47;4.20;;;;;;;;;;5091932;28;20497;-58
2022/04/04 08:29:48;;;;;;;5.57;5.07;;;;;;;;;;5092162;28;20448;-58
2022/04/04 08:32:14;;;;;;;4.53;4.30;;;;;;;;;;5092022;28;20402;-58
2022/04/04 08:34:40;;;;;;;6.07;4.70;;;;;;;;;;5070310;28;20967;-58
2022/04/04 08:37:07;;;;;;;5.17;4.80;;;;;;;;;;5087998;28;20461;-59
2022/04/04 08:39:33;;;;;;;13.67;4.93;;;;;;;;;;5073623;28;20424;-58
2022/04/04 08:41:59;;;;;;;5.03;4.63;;;;;;;;;;5073611;28;20422;-58
2022/04/04 08:44:25;;;;;;;4.53;4.17;;;;;;;;;;5091942;28;20423;-58
2022/04/04 08:46:51;;;;;;;5.70;5.20;;;;;;;;;;5073658;28;20893;-58
2022/04/04 08:49:18;;;;;;;5.57;5.07;;;;;;;;;;5073442;28;20915;-58
2022/04/04 08:51:44;;;;;;;5.93;5.03;;;;;;;;;;5073329;28;20425;-58
2022/04/04 08:54:10;;;;;;;12.27;4.93;;;;;;;;;;5091400;28;21073;-58
2022/04/04 08:56:36;;;;;;;5.47;4.87;;;;;;;;;;5091246;28;20553;-59
2022/04/04 08:59:02;;;;;;;5.23;4.73;;;;;;;;;;5091281;28;20409;-58
2022/04/04 09:01:29;;;;;;;6.50;4.93;;;;;;;;;;5091082;28;20442;-59
2022/04/04 09:04:03;;;;;;;6.20;5.60;;;5.80;99.90;;;;;;5091096;28;20417;-58
2022/04/04 09:06:29;;;;;;;6.70;5.20;;;;;;;;;;5091114;28;20413;-58
2022/04/04 09:08:56;;;;;;;6.10;5.60;;;;;;;;;;5087763;28;20437;-58
2022/04/04 09:11:22;;;;;;;6.03;5.47;;;6.30;99.90;;;;;;5091193;28;20413;-58
2022/04/04 09:14:03;;;;;;;5.27;4.87;;;;;;;;;;5091175;28;20414;-58
2022/04/04 09:16:29;;;;;;;7.13;5.60;;;;;;;;;;5091430;28;20775;-58
2022/04/04 09:18:55;;;;;;;4.80;4.40;;;6.20;99.90;;;;;;5091315;28;20529;-58
2022/04/04 09:21:21;;;;;;;6.30;5.43;;;;;;;;;;5091565;28;20414;-58
2022/04/04 09:23:49;;;;;;;6.20;5.60;;;;;;;;;;5088749;28;20852;-58
2022/04/04 09:26:34;;;;;;;10.73;5.80;;;;;;;;;;5090384;28;20191;-58
2022/04/04 09:29:16;;;;;;;6.30;4.87;;;6.40;99.90;;;;;;5091278;28;20405;-58
2022/04/04 09:32:05;;;;;;;7.10;4.90;;;;;;;;;;5084263;28;20414;-58
2022/04/04 09:34:52;;;;;;;5.70;5.13;;;6.50;99.90;;;;;;5093560;28;20420;-58
2022/04/04 09:37:19;;;;;;;4.83;4.43;;;;;;;;;;5081576;28;20430;-58
2022/04/04 09:39:45;;;;;;;5.40;4.93;;;;;;;;;;5089375;28;20461;-58
2022/04/04 09:42:18;;;;;;;10.60;5.37;;;;;;;;;;5092242;28;20413;-58
2022/04/04 09:44:58;;;;;;;7.37;5.07;;;;;;;;;;5095496;28;20409;-58
2022/04/04 09:47:24;;;;;;;4.27;3.97;;;;;;;;;;5095356;28;20418;-58
2022/04/04 09:49:50;;;;;;;8.63;5.53;;;;;;;;;;5095294;28;20418;-58
2022/04/04 09:52:15;;;;;;;5.80;5.20;;;6.60;99.90;;;;;;5095165;28;20417;-58
2022/04/04 09:54:42;;;;;;;8.53;5.67;;;6.50;99.90;;;;;;5095209;28;21001;-58
2022/04/04 09:57:32;;;;;;;8.70;5.63;;;6.50;99.90;;;;;;5085967;28;20687;-61
2022/04/04 10:00:00;;;;;;;5.80;5.30;;;6.50;99.90;;;;;;5071176;28;20429;-63
2022/04/04 10:02:37;;;;;;;11.50;5.20;;;6.50;99.90;;;;;;5076255;28;20423;-61
2022/04/04 10:05:10;;;;;;;8.37;5.33;;;;;;;;;;5076258;28;20567;-61
2022/04/04 10:07:39;;;;;;;5.00;4.60;;;6.40;99.90;;;;;;5084400;28;20426;-62
2022/04/04 10:10:06;;;;;;;8.03;4.90;;;6.30;99.90;;;;;;5093148;28;20430;-61
2022/04/04 10:12:37;;;;;;;7.90;5.40;;;6.30;99.90;;;;;;5075450;28;20449;-64
2022/04/04 10:15:11;;;;;;;5.23;4.90;;;6.30;99.90;;;;;;5076197;28;20926;-61
2022/04/04 10:17:46;;;;;;;6.07;5.60;;;6.30;99.90;;;;;;5074535;28;20477;-62
2022/04/04 10:20:16;;;;;;;6.60;6.00;;;6.30;99.90;;;;;;5073882;28;20523;-61
2022/04/04 10:23:04;;;;;;;10.10;6.30;;;6.20;99.90;;;;;;5055594;28;20931;-62
2022/04/04 10:25:33;;;;;;;7.37;5.30;;;6.20;99.90;;;;;;5034701;28;20422;-62
2022/04/04 10:27:59;;;;;;;7.60;5.27;;;6.30;99.90;;;;;;5055089;28;20442;-64
2022/04/04 10:30:32;;;;;;;9.60;5.10;;;;;;;;;;5065544;28;20429;-59
2022/04/04 10:32:57;;;;;;;5.73;5.13;;;6.30;99.90;;;;;;5073555;28;21072;-59
2022/04/04 10:35:27;;;;;;;10.30;5.90;;;6.30;99.90;;;;;;5073625;28;20808;-62
2022/04/04 10:38:01;;;;;;;6.83;5.53;;;;;;;;;;5073420;28;20181;-61
2022/04/04 10:40:29;;;;;;;10.53;6.10;;;;;;;;;;5055704;28;20436;-61
2022/04/04 10:43:11;;;;;;;6.10;5.60;;;6.20;99.90;;;;;;5054506;28;20425;-61
2022/04/04 10:45:58;;;;;;;7.20;6.60;;;;;;;;;;5064362;28;20958;-61
2022/04/04 10:48:29;;;;;;;6.80;5.90;;;;;;;;;;5073261;28;20407;-62
2022/04/04 10:51:04;;;;;;;9.57;6.43;;;;;;;;;;5053955;28;20430;-61
2022/04/04 10:53:38;;;;;;;12.87;6.30;;;;;;;;;;5055040;28;20564;-62
2022/04/04 10:56:12;;;;;;;9.90;6.30;;;;;;;;;;5073441;28;21034;-62
2022/04/04 10:58:39;;;;;;;6.80;6.20;;;;;;;;;;5046948;28;20888;-64
2022/04/04 11:01:20;;;;;;;7.70;7.07;;;;;;;;;;5063490;28;20530;-63
2022/04/04 11:03:52;;;;;;;8.10;7.33;;;;;;;;;;5056668;28;20481;-62
2022/04/04 11:09:12;;;;;;;7.37;6.77;;;;;;;;;;5073251;28;20417;-63
2022/04/04 11:11:57;;;;;;;7.80;6.37;;;;;;;;;;5043236;28;20453;-64
2022/04/04 11:14:31;;;;;;;8.93;6.03;;;;;;;;;;5070092;28;20495;-63
2022/04/04 11:20:10;;;;;;;7.00;6.40;;;;;;;;;;5046981;28;20435;-62
2022/04/04 11:22:43;;;;;;;7.23;6.20;;;;;;;;;;5031383;28;20645;-63
2022/04/04 11:25:26;;;;;;;7.60;6.20;;;6.00;99.90;;;;;;5032089;28;20874;-62
2022/04/04 11:28:11;;;;;;;7.00;6.23;;;6.00;99.90;;;;;;5042898;28;20431;-61
2022/04/04 11:30:41;;;;;;;7.10;5.40;;;;;;;;;;5041746;28;20570;-63
2022/04/04 11:33:23;;;;;;;13.03;6.43;;;;;;;;;;5044393;28;20408;-61
2022/04/04 11:35:55;;;;;;;6.10;5.60;;;6.10;99.90;;;;;;5052294;28;20835;-60
2022/04/04 11:38:22;;;;;;;6.90;6.30;;;;;;;;;;5032693;28;20463;-66
2022/04/04 11:40:54;;;;;;;10.37;6.10;;;;;;;;;;5028256;28;20419;-64
2022/04/04 11:43:25;;;;;;;6.93;6.33;;;;;;;;;;5032138;28;20436;-67
2022/04/04 11:46:06;;;;;;;8.23;7.20;;;5.80;99.90;;;;;;5034470;28;20427;-68
2022/04/04 11:51:39;;;;;;;7.57;6.13;;;;;;;;;;5050589;28;20561;-67
2022/04/04 11:54:11;;;;;;;8.17;7.13;;;;;;;;;;5044018;28;20968;-65
2022/04/04 11:56:38;;;;;;;12.90;7.10;;;;;;;;;;5029887;28;20817;-66
2022/04/04 11:59:06;;;;;;;7.43;6.73;;;;;;;;;;5026170;28;21138;-65
2022/04/04 12:01:40;;;;;;;7.87;7.17;;;;;;;;;;5033988;28;20776;-65
2022/04/04 12:04:14;;;;;;;9.10;7.00;;;;;;;;;;5052187;28;20770;-64
2022/04/04 12:06:41;;;;;;;7.93;6.80;;;;;;;;;;5029782;28;20923;-64
2022/04/04 12:09:10;;;;;;;7.67;7.07;;;;;;;;;;5027092;28;20768;-65
2022/04/04 12:11:59;;;;;;;8.93;8.03;;;;;;;;;;5047097;28;20490;-66
2022/04/04 12:14:32;;;;;;;9.87;7.40;;;;;;;;;;5031416;28;20421;-65
2022/04/04 12:16:59;;;;;;;8.30;7.50;;;;;;;;;;5036520;28;20894;-67
2022/04/04 12:19:25;;;;;;;9.87;8.00;;;;;;;;;;5051854;28;20467;-62
2022/04/04 12:21:52;;;;;;;6.93;6.43;;;;;;;;;;5054018;28;20450;-67
2022/04/04 12:27:08;;;;;;;8.53;7.73;;;;;;;;;;5062922;28;20927;-68
2022/04/04 12:29:39;;;;;;;9.97;7.17;;;;;;;;;;5071653;28;20418;-65
2022/04/04 12:32:13;;;;;;;10.23;7.30;;;;;;;;;;5071475;28;20426;-67
2022/04/04 12:34:42;;;;;;;13.80;8.10;;;;;;;;;;5053408;28;20426;-67
2022/04/04 12:37:15;;;;;;;8.23;7.50;;;;;;;;;;5070007;28;20874;-65
2022/04/04 12:39:42;;;;;;;8.80;8.00;;;;;;;;;;5085857;28;20426;-66
2022/04/04 12:42:08;;;;;;;10.00;8.43;;;;;;;;;;5083024;28;20437;-63
2022/04/04 12:44:35;;;;;;;8.63;7.83;;;;;;;;;;5083325;28;20759;-66
2022/04/04 12:47:06;;;;;;;8.90;8.00;;;;;;;;;;5091589;28;20413;-65
2022/04/04 12:49:32;;;;;;;9.63;8.63;;;;;;;;;;5073335;28;20500;-65
2022/04/04 12:52:06;;;;;;;8.73;7.60;;;;;;;;;;5091118;28;20406;-65
2022/04/04 12:54:37;;;;;;;8.63;7.00;;;;;;;;;;5073269;28;20430;-64
2022/04/04 12:57:05;;;;;;;9.43;7.50;;;;;;;;;;5091369;28;20457;-64
2022/04/04 12:59:47;;;;;;;9.60;8.70;;;;;;;;;;5072530;28;20793;-66
2022/04/04 13:02:17;;;;;;;10.30;8.20;;;;;;;;;;5091441;28;20413;-66
2022/04/04 13:04:43;;;;;;;10.63;8.17;;;;;;;;;;5071608;28;20979;-64
2022/04/04 13:07:17;;;;;;;10.47;7.90;;;;;;;;;;5091610;28;20482;-63
2022/04/04 13:09:49;;;;;;;9.13;8.23;;;;;;;;;;5091172;28;20418;-62
2022/04/04 13:12:24;;;;;;;9.30;8.37;;;;;;;;;;5073833;28;20926;-63
2022/04/04 13:14:50;;;;;;;8.03;7.30;;;;;;;;;;5091638;28;20413;-63
2022/04/04 13:17:16;;;;;;;12.23;7.17;;;;;;;;;;5091184;28;20467;-62
2022/04/04 13:19:41;;;;;;;9.17;7.43;;;;;;;;;;5072615;28;20779;-62
2022/04/04 13:22:07;;;;;;;11.97;7.47;;;;;;;;;;5090756;28;20405;-62
2022/04/04 13:24:34;;;;;;;8.57;7.73;;;;;;;;;;5091265;28;20180;-63
2022/04/04 13:27:00;;;;;;;11.27;9.87;;;;;;;;;;5091555;28;20436;-62
2022/04/04 13:29:25;;;;;;;8.77;7.83;;;;;;;;;;5088317;28;20888;-62
2022/04/04 13:31:51;;;;;;;8.43;7.70;;;;;;;;;;5085595;28;20426;-63
2022/04/04 13:34:17;;;;;;;8.27;7.20;;;;;;;;;;5091588;28;20409;-63
2022/04/04 13:36:43;;;;;;;7.37;6.87;;;;;;;;;;5090971;28;20241;-63
2022/04/04 13:39:10;;;;;;;8.23;7.43;;;;;;;;;;5091363;28;20179;-62
2022/04/04 13:41:37;;;;;;;8.67;7.83;;;;;;;;;;5091401;28;20405;-63
2022/04/04 13:44:05;;;;;;;8.10;6.60;;;;;;;;;;5091509;28;20410;-62
2022/04/04 13:46:31;;;;;;;7.53;6.80;;;;;;;;;;5087941;28;20426;-62
2022/04/04 13:48:58;;;;;;;8.80;8.10;;;;;;;;;;5091348;28;20413;-62
2022/04/04 13:51:25;;;;;;;6.53;6.10;;;;;;;;;;5090798;28;20406;-62
2022/04/04 13:53:54;;;;;;;6.83;5.70;;;;;;;;;;5090686;28;20418;-63
2022/04/04 13:56:21;;;;;;;7.33;6.73;;;;;;;;;;5090756;28;20471;-63
2022/04/04 13:58:47;;;;;;;8.60;7.80;;;;;;;;;;5090920;28;20409;-62
2022/04/04 14:01:14;;;;;;;10.40;7.20;;;;;;;;;;5090690;28;20402;-62
2022/04/04 14:03:40;;;;;;;7.93;7.23;;;;;;;;;;5088395;28;20443;-61
2022/04/04 14:06:06;;;;;;;9.00;6.77;;;;;;;;;;5076855;28;20948;-62
2022/04/04 14:08:33;;;;;;;7.53;6.87;;;;;;;;;;5090054;28;20418;-62
2022/04/04 14:11:01;;;;;;;7.00;6.30;;;;;;;;;;5072270;28;20418;-62
2022/04/04 14:13:27;;;;;;;7.40;6.80;;;;;;;;;;5090579;28;20440;-62
2022/04/04 14:15:53;;;;;;;6.07;5.63;;;;;;;;;;5091262;28;20946;-62
2022/04/04 14:18:20;;;;;;;6.63;6.13;;;;;;;;;;5090960;28;20979;-62
2022/04/04 14:20:46;;;;;;;6.07;5.67;;;;;;;;;;5091588;28;20410;-61
2022/04/04 14:23:13;;;;;;;5.77;5.47;;;;;;;;;;5084896;28;20448;-62
2022/04/04 14:25:40;;;;;;;5.67;5.17;;;;;;;;;;5076469;28;20425;-62
2022/04/04 14:28:06;;;;;;;6.30;5.90;;;;;;;;;;5094626;28;20427;-62
2022/04/04 14:30:32;;;;;;;6.57;5.87;;;;;;;;;;5093875;28;20413;-62
2022/04/04 14:32:58;;;;;;;7.37;6.77;;;;;;;;;;5093753;28;20414;-63
2022/04/04 14:35:24;;;;;;;5.90;5.40;;;;;;;;;;5094343;28;20461;-62
2022/04/04 14:37:50;;;;;;;12.80;6.40;;;;;;;;;;5075732;28;20771;-62
2022/04/04 14:40:16;;;;;;;5.40;5.10;;;;;;;;;;5094611;28;20418;-62
2022/04/04 14:42:43;;;;;;;6.47;5.90;;;;;;;;;;5076440;28;20795;-63
2022/04/04 14:45:09;;;;;;;6.63;6.13;;;;;;;;;;5094440;28;20424;-62